sensor_id;sensor_type;location;lat;lon;timestamp;temperature;humidity
108;DHT22;49;48.530;9.200;2022-07-11T00:00:22;20.90;1.00
108;DHT22;49;48.530;9.200;2022-07-11T00:02:50;20.90;1.00
108;DHT22;49;48.530;9.200;2022-07-11T00:05:17;21.10;1.00
108;DHT22;49;48.530;9.200;2022-07-11T00:07:45;20.80;1.00
108;DHT22;49;48.530;9.200;2022-07-11T00:10:13;20.80;1.00
108;DHT22;49;48.530;9.200;2022-07-11T00:12:41;20.60;1.00
108;DHT22;49;48.530;9.200;2022-07-11T00:15:08;20.90;1.00
108;DHT22;49;48.530;9.200;2022-07-11T00:17:35;21.00;1.00
108;DHT22;49;48.530;9.200;2022-07-11T00:20:03;20.90;1.00
108;DHT22;49;48.530;9.200;2022-07-11T00:22:31;21.00;1.00
108;DHT22;49;48.530;9.200;2022-07-11T00:24:58;21.00;1.00
108;DHT22;49;48.530;9.200;2022-07-11T00:27:25;21.00;1.00
108;DHT22;49;48.530;9.200;2022-07-11T00:29:53;21.30;1.00
108;DHT22;49;48.530;9.200;2022-07-11T00:32:20;21.30;1.00
108;DHT22;49;48.530;9.200;2022-07-11T00:34:48;21.30;1.00
108;DHT22;49;48.530;9.200;2022-07-11T00:37:15;21.20;1.00
108;DHT22;49;48.530;9.200;2022-07-11T00:39:42;21.10;1.00
108;DHT22;49;48.530;9.200;2022-07-11T00:42:09;21.00;1.00
108;DHT22;49;48.530;9.200;2022-07-11T00:44:36;21.10;1.00
108;DHT22;49;48.530;9.200;2022-07-11T00:47:04;21.10;1.00
108;DHT22;49;48.530;9.200;2022-07-11T00:49:31;21.00;1.00
108;DHT22;49;48.530;9.200;2022-07-11T00:51:58;21.00;1.00
108;DHT22;49;48.530;9.200;2022-07-11T00:54:27;20.60;1.00
108;DHT22;49;48.530;9.200;2022-07-11T00:56:54;19.50;1.00
108;DHT22;49;48.530;9.200;2022-07-11T00:59:21;19.50;1.00
108;DHT22;49;48.530;9.200;2022-07-11T01:01:48;20.00;1.00
108;DHT22;49;48.530;9.200;2022-07-11T01:04:17;20.00;1.00
108;DHT22;49;48.530;9.200;2022-07-11T01:06:44;19.60;1.00
108;DHT22;49;48.530;9.200;2022-07-11T01:09:11;19.40;1.00
108;DHT22;49;48.530;9.200;2022-07-11T01:11:38;19.10;1.00
108;DHT22;49;48.530;9.200;2022-07-11T01:14:05;19.00;1.00
108;DHT22;49;48.530;9.200;2022-07-11T01:16:31;18.80;1.00
108;DHT22;49;48.530;9.200;2022-07-11T01:18:58;18.70;1.00
108;DHT22;49;48.530;9.200;2022-07-11T01:21:30;18.80;1.00
108;DHT22;49;48.530;9.200;2022-07-11T01:23:59;18.60;1.00
108;DHT22;49;48.530;9.200;2022-07-11T01:26:27;18.60;1.00
108;DHT22;49;48.530;9.200;2022-07-11T01:28:55;18.60;1.00
108;DHT22;49;48.530;9.200;2022-07-11T01:31:30;18.30;1.00
108;DHT22;49;48.530;9.200;2022-07-11T01:33:57;18.20;1.00
108;DHT22;49;48.530;9.200;2022-07-11T01:36:24;18.60;1.00
108;DHT22;49;48.530;9.200;2022-07-11T01:38:51;18.90;1.00
108;DHT22;49;48.530;9.200;2022-07-11T01:41:23;19.50;1.00
108;DHT22;49;48.530;9.200;2022-07-11T01:43:50;19.40;1.00
108;DHT22;49;48.530;9.200;2022-07-11T01:46:18;19.10;1.00
108;DHT22;49;48.530;9.200;2022-07-11T01:48:47;19.10;1.00
108;DHT22;49;48.530;9.200;2022-07-11T01:51:14;19.20;1.00
108;DHT22;49;48.530;9.200;2022-07-11T01:53:41;19.30;1.00
108;DHT22;49;48.530;9.200;2022-07-11T01:56:08;19.30;1.00
108;DHT22;49;48.530;9.200;2022-07-11T01:58:36;19.50;1.00
108;DHT22;49;48.530;9.200;2022-07-11T02:01:04;19.40;1.00
108;DHT22;49;48.530;9.200;2022-07-11T02:03:31;19.30;1.00
108;DHT22;49;48.530;9.200;2022-07-11T02:05:57;19.70;1.00
108;DHT22;49;48.530;9.200;2022-07-11T02:08:24;20.10;1.00
108;DHT22;49;48.530;9.200;2022-07-11T02:10:52;19.80;1.00
108;DHT22;49;48.530;9.200;2022-07-11T02:13:21;19.20;1.00
108;DHT22;49;48.530;9.200;2022-07-11T02:15:50;19.50;1.00
108;DHT22;49;48.530;9.200;2022-07-11T02:18:19;19.50;1.00
108;DHT22;49;48.530;9.200;2022-07-11T02:20:46;19.30;1.00
108;DHT22;49;48.530;9.200;2022-07-11T02:23:15;19.40;1.00
108;DHT22;49;48.530;9.200;2022-07-11T02:25:42;19.50;1.00
108;DHT22;49;48.530;9.200;2022-07-11T02:28:10;19.00;1.00
108;DHT22;49;48.530;9.200;2022-07-11T02:30:38;18.90;1.00
108;DHT22;49;48.530;9.200;2022-07-11T02:33:07;19.30;1.00
108;DHT22;49;48.530;9.200;2022-07-11T02:35:36;19.50;1.00
108;DHT22;49;48.530;9.200;2022-07-11T02:38:04;19.60;1.00
108;DHT22;49;48.530;9.200;2022-07-11T02:40:31;19.70;1.00
108;DHT22;49;48.530;9.200;2022-07-11T02:42:57;19.50;1.00
108;DHT22;49;48.530;9.200;2022-07-11T02:45:24;19.50;1.00
108;DHT22;49;48.530;9.200;2022-07-11T02:47:51;19.60;1.00
108;DHT22;49;48.530;9.200;2022-07-11T02:50:20;19.20;1.00
108;DHT22;49;48.530;9.200;2022-07-11T02:52:46;19.10;1.00
108;DHT22;49;48.530;9.200;2022-07-11T02:55:14;19.20;1.00
108;DHT22;49;48.530;9.200;2022-07-11T02:57:42;19.20;1.00
108;DHT22;49;48.530;9.200;2022-07-11T03:00:12;19.10;1.00
108;DHT22;49;48.530;9.200;2022-07-11T03:02:39;18.70;1.00
108;DHT22;49;48.530;9.200;2022-07-11T03:05:07;18.70;1.00
108;DHT22;49;48.530;9.200;2022-07-11T03:07:36;19.00;1.00
108;DHT22;49;48.530;9.200;2022-07-11T03:10:03;18.90;1.00
108;DHT22;49;48.530;9.200;2022-07-11T03:12:30;18.80;1.00
108;DHT22;49;48.530;9.200;2022-07-11T03:14:57;18.80;1.00
108;DHT22;49;48.530;9.200;2022-07-11T03:17:24;18.80;1.00
108;DHT22;49;48.530;9.200;2022-07-11T03:19:51;18.90;1.00
108;DHT22;49;48.530;9.200;2022-07-11T03:22:18;19.00;1.00
108;DHT22;49;48.530;9.200;2022-07-11T03:24:46;19.00;1.00
108;DHT22;49;48.530;9.200;2022-07-11T03:27:14;19.20;1.00
108;DHT22;49;48.530;9.200;2022-07-11T03:29:41;19.30;1.00
108;DHT22;49;48.530;9.200;2022-07-11T03:32:08;19.20;1.00
108;DHT22;49;48.530;9.200;2022-07-11T03:34:36;19.20;1.00
108;DHT22;49;48.530;9.200;2022-07-11T03:37:03;19.30;1.00
108;DHT22;49;48.530;9.200;2022-07-11T03:39:31;19.10;1.00
108;DHT22;49;48.530;9.200;2022-07-11T03:41:59;19.20;1.00
108;DHT22;49;48.530;9.200;2022-07-11T03:44:26;19.40;1.00
108;DHT22;49;48.530;9.200;2022-07-11T03:46:53;19.50;1.00
108;DHT22;49;48.530;9.200;2022-07-11T03:49:20;19.40;1.00
108;DHT22;49;48.530;9.200;2022-07-11T03:51:47;19.60;1.00
108;DHT22;49;48.530;9.200;2022-07-11T03:54:14;19.60;1.00
108;DHT22;49;48.530;9.200;2022-07-11T03:56:41;19.60;1.00
108;DHT22;49;48.530;9.200;2022-07-11T03:59:09;19.80;1.00
108;DHT22;49;48.530;9.200;2022-07-11T04:01:36;20.30;1.00
108;DHT22;49;48.530;9.200;2022-07-11T04:04:03;20.60;1.00
108;DHT22;49;48.530;9.200;2022-07-11T04:06:34;20.70;1.00
108;DHT22;49;48.530;9.200;2022-07-11T04:09:01;20.30;1.00
108;DHT22;49;48.530;9.200;2022-07-11T04:11:28;19.90;1.00
108;DHT22;49;48.530;9.200;2022-07-11T04:13:55;19.70;1.00
108;DHT22;49;48.530;9.200;2022-07-11T04:16:23;20.10;1.00
108;DHT22;49;48.530;9.200;2022-07-11T04:18:50;20.50;1.00
108;DHT22;49;48.530;9.200;2022-07-11T04:21:17;20.40;1.00
108;DHT22;49;48.530;9.200;2022-07-11T04:23:44;20.30;1.00
108;DHT22;49;48.530;9.200;2022-07-11T04:26:11;20.40;1.00
108;DHT22;49;48.530;9.200;2022-07-11T04:28:38;20.60;1.00
108;DHT22;49;48.530;9.200;2022-07-11T04:31:05;20.50;1.00
108;DHT22;49;48.530;9.200;2022-07-11T04:33:34;20.30;1.00
108;DHT22;49;48.530;9.200;2022-07-11T04:36:01;20.20;1.00
108;DHT22;49;48.530;9.200;2022-07-11T04:38:28;20.40;1.00
108;DHT22;49;48.530;9.200;2022-07-11T04:40:58;20.10;1.00
108;DHT22;49;48.530;9.200;2022-07-11T04:46:02;19.60;1.00
108;DHT22;49;48.530;9.200;2022-07-11T04:48:30;19.40;1.00
108;DHT22;49;48.530;9.200;2022-07-11T04:50:59;19.70;1.00
108;DHT22;49;48.530;9.200;2022-07-11T04:53:26;20.00;1.00
108;DHT22;49;48.530;9.200;2022-07-11T04:55:53;20.00;1.00
108;DHT22;49;48.530;9.200;2022-07-11T04:58:20;19.70;1.00
108;DHT22;49;48.530;9.200;2022-07-11T05:00:47;19.30;1.00
108;DHT22;49;48.530;9.200;2022-07-11T05:03:14;19.50;1.00
108;DHT22;49;48.530;9.200;2022-07-11T05:05:42;19.50;1.00
108;DHT22;49;48.530;9.200;2022-07-11T05:08:10;19.90;1.00
108;DHT22;49;48.530;9.200;2022-07-11T05:10:37;19.90;1.00
108;DHT22;49;48.530;9.200;2022-07-11T05:13:04;19.60;1.00
108;DHT22;49;48.530;9.200;2022-07-11T05:15:31;19.90;1.00
108;DHT22;49;48.530;9.200;2022-07-11T05:17:58;20.10;1.00
108;DHT22;49;48.530;9.200;2022-07-11T05:20:25;20.50;1.00
108;DHT22;49;48.530;9.200;2022-07-11T05:22:52;20.60;1.00
108;DHT22;49;48.530;9.200;2022-07-11T05:25:21;21.00;1.00
108;DHT22;49;48.530;9.200;2022-07-11T05:27:48;21.40;1.00
108;DHT22;49;48.530;9.200;2022-07-11T05:30:15;21.70;1.00
108;DHT22;49;48.530;9.200;2022-07-11T05:32:42;21.30;1.00
108;DHT22;49;48.530;9.200;2022-07-11T05:35:09;21.20;1.00
108;DHT22;49;48.530;9.200;2022-07-11T05:37:38;21.40;1.00
108;DHT22;49;48.530;9.200;2022-07-11T05:40:06;21.60;1.00
108;DHT22;49;48.530;9.200;2022-07-11T05:42:34;22.10;1.00
108;DHT22;49;48.530;9.200;2022-07-11T05:45:04;22.60;1.00
108;DHT22;49;48.530;9.200;2022-07-11T05:47:31;22.70;1.00
108;DHT22;49;48.530;9.200;2022-07-11T05:49:58;22.60;1.00
108;DHT22;49;48.530;9.200;2022-07-11T05:52:25;22.40;1.00
108;DHT22;49;48.530;9.200;2022-07-11T05:54:52;23.00;1.00
108;DHT22;49;48.530;9.200;2022-07-11T05:57:20;23.50;1.00
108;DHT22;49;48.530;9.200;2022-07-11T05:59:48;23.50;1.00
108;DHT22;49;48.530;9.200;2022-07-11T06:02:16;23.70;1.00
108;DHT22;49;48.530;9.200;2022-07-11T06:04:45;24.00;1.00
108;DHT22;49;48.530;9.200;2022-07-11T06:07:12;24.50;1.00
108;DHT22;49;48.530;9.200;2022-07-11T06:09:59;25.10;1.00
108;DHT22;49;48.530;9.200;2022-07-11T06:12:25;25.90;1.00
108;DHT22;49;48.530;9.200;2022-07-11T06:14:53;26.20;1.00
108;DHT22;49;48.530;9.200;2022-07-11T06:17:21;26.00;1.00
108;DHT22;49;48.530;9.200;2022-07-11T06:22:18;25.90;1.00
108;DHT22;49;48.530;9.200;2022-07-11T06:24:45;25.90;1.00
108;DHT22;49;48.530;9.200;2022-07-11T06:27:11;25.90;1.00
108;DHT22;49;48.530;9.200;2022-07-11T06:29:38;25.80;1.00
108;DHT22;49;48.530;9.200;2022-07-11T06:32:07;25.60;1.00
108;DHT22;49;48.530;9.200;2022-07-11T06:34:34;25.40;1.00
108;DHT22;49;48.530;9.200;2022-07-11T06:37:02;25.10;1.00
108;DHT22;49;48.530;9.200;2022-07-11T06:39:30;25.20;1.00
108;DHT22;49;48.530;9.200;2022-07-11T06:41:57;25.90;1.00
108;DHT22;49;48.530;9.200;2022-07-11T06:44:24;26.40;1.00
108;DHT22;49;48.530;9.200;2022-07-11T06:46:51;27.30;1.00
108;DHT22;49;48.530;9.200;2022-07-11T06:49:19;28.30;1.00
108;DHT22;49;48.530;9.200;2022-07-11T06:51:46;29.20;1.00
108;DHT22;49;48.530;9.200;2022-07-11T06:54:13;30.10;1.00
108;DHT22;49;48.530;9.200;2022-07-11T06:56:40;30.70;1.00
108;DHT22;49;48.530;9.200;2022-07-11T07:01:35;32.60;1.00
108;DHT22;49;48.530;9.200;2022-07-11T07:04:03;32.70;1.00
108;DHT22;49;48.530;9.200;2022-07-11T07:06:31;32.70;1.00
108;DHT22;49;48.530;9.200;2022-07-11T07:08:58;32.80;1.00
108;DHT22;49;48.530;9.200;2022-07-11T07:11:25;33.30;1.00
108;DHT22;49;48.530;9.200;2022-07-11T07:13:51;33.40;1.00
108;DHT22;49;48.530;9.200;2022-07-11T07:16:18;33.60;1.00
108;DHT22;49;48.530;9.200;2022-07-11T07:18:45;34.20;1.00
108;DHT22;49;48.530;9.200;2022-07-11T07:21:14;34.60;1.00
108;DHT22;49;48.530;9.200;2022-07-11T07:23:42;34.80;1.00
108;DHT22;49;48.530;9.200;2022-07-11T07:26:09;33.70;1.00
108;DHT22;49;48.530;9.200;2022-07-11T07:28:36;32.70;1.00
108;DHT22;49;48.530;9.200;2022-07-11T07:31:04;32.70;1.00
108;DHT22;49;48.530;9.200;2022-07-11T07:33:31;32.90;1.00
108;DHT22;49;48.530;9.200;2022-07-11T07:35:57;32.10;1.00
108;DHT22;49;48.530;9.200;2022-07-11T07:38:24;32.10;1.00
108;DHT22;49;48.530;9.200;2022-07-11T07:40:52;31.30;1.00
108;DHT22;49;48.530;9.200;2022-07-11T07:43:20;30.90;1.00
108;DHT22;49;48.530;9.200;2022-07-11T07:45:47;30.60;1.00
108;DHT22;49;48.530;9.200;2022-07-11T07:48:14;30.60;1.00
108;DHT22;49;48.530;9.200;2022-07-11T07:50:40;30.50;1.00
108;DHT22;49;48.530;9.200;2022-07-11T07:53:07;30.20;1.00
108;DHT22;49;48.530;9.200;2022-07-11T07:55:35;30.50;1.00
108;DHT22;49;48.530;9.200;2022-07-11T07:58:04;31.20;1.00
108;DHT22;49;48.530;9.200;2022-07-11T08:00:31;31.30;1.00
108;DHT22;49;48.530;9.200;2022-07-11T08:03:20;32.10;1.00
108;DHT22;49;48.530;9.200;2022-07-11T08:05:47;33.50;1.00
108;DHT22;49;48.530;9.200;2022-07-11T08:08:14;33.50;1.00
108;DHT22;49;48.530;9.200;2022-07-11T08:10:41;34.20;1.00
108;DHT22;49;48.530;9.200;2022-07-11T08:13:09;35.40;1.00
108;DHT22;49;48.530;9.200;2022-07-11T08:15:36;35.60;1.00
108;DHT22;49;48.530;9.200;2022-07-11T08:18:03;35.20;1.00
108;DHT22;49;48.530;9.200;2022-07-11T08:20:30;34.50;1.00
108;DHT22;49;48.530;9.200;2022-07-11T08:22:59;34.60;1.00
108;DHT22;49;48.530;9.200;2022-07-11T08:25:26;34.30;1.00
108;DHT22;49;48.530;9.200;2022-07-11T08:27:53;34.30;1.00
108;DHT22;49;48.530;9.200;2022-07-11T08:30:21;34.30;1.00
108;DHT22;49;48.530;9.200;2022-07-11T08:32:48;34.20;1.00
108;DHT22;49;48.530;9.200;2022-07-11T08:35:15;34.20;1.00
108;DHT22;49;48.530;9.200;2022-07-11T08:37:42;34.40;1.00
108;DHT22;49;48.530;9.200;2022-07-11T08:40:10;34.10;1.00
108;DHT22;49;48.530;9.200;2022-07-11T08:42:43;34.50;1.00
108;DHT22;49;48.530;9.200;2022-07-11T08:45:11;33.60;1.00
108;DHT22;49;48.530;9.200;2022-07-11T08:47:42;33.30;1.00
108;DHT22;49;48.530;9.200;2022-07-11T08:50:11;33.00;1.00
108;DHT22;49;48.530;9.200;2022-07-11T08:52:38;32.60;1.00
108;DHT22;49;48.530;9.200;2022-07-11T08:55:06;33.10;1.00
108;DHT22;49;48.530;9.200;2022-07-11T08:57:33;33.60;1.00
108;DHT22;49;48.530;9.200;2022-07-11T09:00:03;33.60;1.00
108;DHT22;49;48.530;9.200;2022-07-11T09:02:32;33.20;1.00
108;DHT22;49;48.530;9.200;2022-07-11T09:05:01;32.90;1.00
108;DHT22;49;48.530;9.200;2022-07-11T09:07:31;32.70;1.00
108;DHT22;49;48.530;9.200;2022-07-11T09:09:58;33.40;1.00
108;DHT22;49;48.530;9.200;2022-07-11T09:12:26;32.90;1.00
108;DHT22;49;48.530;9.200;2022-07-11T09:14:53;33.20;1.00
108;DHT22;49;48.530;9.200;2022-07-11T09:17:25;32.60;1.00
108;DHT22;49;48.530;9.200;2022-07-11T09:19:52;32.70;1.00
108;DHT22;49;48.530;9.200;2022-07-11T09:22:21;32.50;1.00
108;DHT22;49;48.530;9.200;2022-07-11T09:25:07;32.90;1.00
108;DHT22;49;48.530;9.200;2022-07-11T09:27:49;32.30;1.00
108;DHT22;49;48.530;9.200;2022-07-11T09:30:19;32.20;1.00
108;DHT22;49;48.530;9.200;2022-07-11T09:32:57;31.50;1.00
108;DHT22;49;48.530;9.200;2022-07-11T09:35:26;30.60;1.00
108;DHT22;49;48.530;9.200;2022-07-11T09:37:54;29.40;1.00
108;DHT22;49;48.530;9.200;2022-07-11T09:40:22;29.40;1.00
108;DHT22;49;48.530;9.200;2022-07-11T09:42:52;29.80;1.00
108;DHT22;49;48.530;9.200;2022-07-11T09:45:21;29.80;1.00
108;DHT22;49;48.530;9.200;2022-07-11T09:47:50;29.60;1.00
108;DHT22;49;48.530;9.200;2022-07-11T09:50:20;29.60;1.00
108;DHT22;49;48.530;9.200;2022-07-11T09:53:04;29.20;1.00
108;DHT22;49;48.530;9.200;2022-07-11T09:55:33;28.10;1.00
108;DHT22;49;48.530;9.200;2022-07-11T09:58:06;27.90;1.00
108;DHT22;49;48.530;9.200;2022-07-11T10:00:34;27.90;1.00
108;DHT22;49;48.530;9.200;2022-07-11T10:03:02;28.20;1.00
108;DHT22;49;48.530;9.200;2022-07-11T10:05:29;28.00;1.00
108;DHT22;49;48.530;9.200;2022-07-11T10:07:57;27.70;1.00
108;DHT22;49;48.530;9.200;2022-07-11T10:10:27;27.10;1.00
108;DHT22;49;48.530;9.200;2022-07-11T10:12:55;26.80;1.00
108;DHT22;49;48.530;9.200;2022-07-11T10:15:24;27.50;1.00
108;DHT22;49;48.530;9.200;2022-07-11T10:18:04;27.80;1.00
108;DHT22;49;48.530;9.200;2022-07-11T10:20:37;27.70;1.00
108;DHT22;49;48.530;9.200;2022-07-11T10:23:16;27.50;1.00
108;DHT22;49;48.530;9.200;2022-07-11T10:25:54;27.00;1.00
108;DHT22;49;48.530;9.200;2022-07-11T10:28:27;26.40;1.00
108;DHT22;49;48.530;9.200;2022-07-11T10:30:56;26.20;1.00
108;DHT22;49;48.530;9.200;2022-07-11T10:33:26;26.40;1.00
108;DHT22;49;48.530;9.200;2022-07-11T10:35:54;26.50;1.00
108;DHT22;49;48.530;9.200;2022-07-11T10:38:22;26.70;1.00
108;DHT22;49;48.530;9.200;2022-07-11T10:40:52;26.60;1.00
108;DHT22;49;48.530;9.200;2022-07-11T10:43:37;26.20;1.00
108;DHT22;49;48.530;9.200;2022-07-11T10:46:07;26.00;1.00
108;DHT22;49;48.530;9.200;2022-07-11T10:48:36;26.70;1.00
108;DHT22;49;48.530;9.200;2022-07-11T10:51:20;27.40;1.00
108;DHT22;49;48.530;9.200;2022-07-11T10:53:50;27.60;1.00
108;DHT22;49;48.530;9.200;2022-07-11T10:56:35;27.60;1.00
108;DHT22;49;48.530;9.200;2022-07-11T10:59:12;27.50;1.00
108;DHT22;49;48.530;9.200;2022-07-11T11:02:09;27.70;1.00
108;DHT22;49;48.530;9.200;2022-07-11T11:04:45;27.60;1.00
108;DHT22;49;48.530;9.200;2022-07-11T11:07:38;28.00;1.00
108;DHT22;49;48.530;9.200;2022-07-11T11:13:18;28.50;1.00
108;DHT22;49;48.530;9.200;2022-07-11T11:15:48;28.60;1.00
108;DHT22;49;48.530;9.200;2022-07-11T11:18:32;28.90;1.00
108;DHT22;49;48.530;9.200;2022-07-11T11:21:13;28.40;1.00
108;DHT22;49;48.530;9.200;2022-07-11T11:23:42;27.80;1.00
108;DHT22;49;48.530;9.200;2022-07-11T11:26:11;28.00;1.00
108;DHT22;49;48.530;9.200;2022-07-11T11:28:55;27.60;1.00
108;DHT22;49;48.530;9.200;2022-07-11T11:31:23;27.20;1.00
108;DHT22;49;48.530;9.200;2022-07-11T11:33:50;27.90;1.00
108;DHT22;49;48.530;9.200;2022-07-11T11:36:18;28.40;1.00
108;DHT22;49;48.530;9.200;2022-07-11T11:38:46;28.70;1.00
108;DHT22;49;48.530;9.200;2022-07-11T11:41:14;28.50;1.00
108;DHT22;49;48.530;9.200;2022-07-11T11:43:44;28.30;1.00
108;DHT22;49;48.530;9.200;2022-07-11T11:46:12;28.70;1.00
108;DHT22;49;48.530;9.200;2022-07-11T11:48:40;28.50;1.00
108;DHT22;49;48.530;9.200;2022-07-11T11:51:12;28.20;1.00
108;DHT22;49;48.530;9.200;2022-07-11T11:53:41;27.70;1.00
108;DHT22;49;48.530;9.200;2022-07-11T11:56:14;28.00;1.00
108;DHT22;49;48.530;9.200;2022-07-11T11:58:44;28.00;1.00
108;DHT22;49;48.530;9.200;2022-07-11T12:01:11;27.80;1.00
108;DHT22;49;48.530;9.200;2022-07-11T12:03:48;28.20;1.00
108;DHT22;49;48.530;9.200;2022-07-11T12:06:15;28.30;1.00
108;DHT22;49;48.530;9.200;2022-07-11T12:08:43;28.50;1.00
108;DHT22;49;48.530;9.200;2022-07-11T12:11:12;28.60;1.00
108;DHT22;49;48.530;9.200;2022-07-11T12:13:39;28.70;1.00
108;DHT22;49;48.530;9.200;2022-07-11T12:16:13;28.80;1.00
108;DHT22;49;48.530;9.200;2022-07-11T12:18:59;28.80;1.00
108;DHT22;49;48.530;9.200;2022-07-11T12:21:28;28.60;1.00
108;DHT22;49;48.530;9.200;2022-07-11T12:23:57;28.60;1.00
108;DHT22;49;48.530;9.200;2022-07-11T12:26:26;28.50;1.00
108;DHT22;49;48.530;9.200;2022-07-11T12:29:07;29.00;1.00
108;DHT22;49;48.530;9.200;2022-07-11T12:31:45;28.40;1.00
108;DHT22;49;48.530;9.200;2022-07-11T12:34:14;28.30;1.00
108;DHT22;49;48.530;9.200;2022-07-11T12:36:41;28.10;1.00
108;DHT22;49;48.530;9.200;2022-07-11T12:39:08;27.90;1.00
108;DHT22;49;48.530;9.200;2022-07-11T12:41:35;28.50;1.00
108;DHT22;49;48.530;9.200;2022-07-11T12:44:02;28.20;1.00
108;DHT22;49;48.530;9.200;2022-07-11T12:46:48;28.50;1.00
108;DHT22;49;48.530;9.200;2022-07-11T12:49:16;28.60;1.00
108;DHT22;49;48.530;9.200;2022-07-11T12:51:45;28.50;1.00
108;DHT22;49;48.530;9.200;2022-07-11T12:54:14;27.90;1.00
108;DHT22;49;48.530;9.200;2022-07-11T12:56:51;28.00;1.00
108;DHT22;49;48.530;9.200;2022-07-11T12:59:21;27.90;1.00
108;DHT22;49;48.530;9.200;2022-07-11T13:02:01;27.70;1.00
108;DHT22;49;48.530;9.200;2022-07-11T13:04:31;28.20;1.00
108;DHT22;49;48.530;9.200;2022-07-11T13:06:58;28.00;1.00
108;DHT22;49;48.530;9.200;2022-07-11T13:09:42;28.30;1.00
108;DHT22;49;48.530;9.200;2022-07-11T13:12:10;28.40;1.00
108;DHT22;49;48.530;9.200;2022-07-11T13:14:37;28.00;1.00
108;DHT22;49;48.530;9.200;2022-07-11T13:17:22;27.50;1.00
108;DHT22;49;48.530;9.200;2022-07-11T13:19:49;27.40;1.00
108;DHT22;49;48.530;9.200;2022-07-11T13:22:16;27.20;1.00
108;DHT22;49;48.530;9.200;2022-07-11T13:24:43;27.90;1.00
108;DHT22;49;48.530;9.200;2022-07-11T13:27:10;28.60;1.00
108;DHT22;49;48.530;9.200;2022-07-11T13:29:37;28.90;1.00
108;DHT22;49;48.530;9.200;2022-07-11T13:32:04;29.30;1.00
108;DHT22;49;48.530;9.200;2022-07-11T13:34:33;29.30;1.00
108;DHT22;49;48.530;9.200;2022-07-11T13:37:00;29.20;1.00
108;DHT22;49;48.530;9.200;2022-07-11T13:39:27;28.90;1.00
108;DHT22;49;48.530;9.200;2022-07-11T13:41:54;27.70;1.00
108;DHT22;49;48.530;9.200;2022-07-11T13:44:21;27.70;1.00
108;DHT22;49;48.530;9.200;2022-07-11T13:46:48;27.50;1.00
108;DHT22;49;48.530;9.200;2022-07-11T13:49:14;28.20;1.00
108;DHT22;49;48.530;9.200;2022-07-11T13:51:43;28.80;1.00
108;DHT22;49;48.530;9.200;2022-07-11T13:54:09;28.90;1.00
108;DHT22;49;48.530;9.200;2022-07-11T13:56:36;28.90;1.00
108;DHT22;49;48.530;9.200;2022-07-11T13:59:03;28.90;1.00
108;DHT22;49;48.530;9.200;2022-07-11T14:01:30;28.20;1.00
108;DHT22;49;48.530;9.200;2022-07-11T14:03:57;27.60;1.00
108;DHT22;49;48.530;9.200;2022-07-11T14:06:24;27.60;1.00
108;DHT22;49;48.530;9.200;2022-07-11T14:08:52;28.00;1.00
108;DHT22;49;48.530;9.200;2022-07-11T14:11:20;28.50;1.00
108;DHT22;49;48.530;9.200;2022-07-11T14:13:47;28.50;1.00
108;DHT22;49;48.530;9.200;2022-07-11T14:16:14;28.30;1.00
108;DHT22;49;48.530;9.200;2022-07-11T14:18:43;28.40;1.00
108;DHT22;49;48.530;9.200;2022-07-11T14:21:10;27.70;1.00
108;DHT22;49;48.530;9.200;2022-07-11T14:23:37;27.50;1.00
108;DHT22;49;48.530;9.200;2022-07-11T14:26:06;27.40;1.00
108;DHT22;49;48.530;9.200;2022-07-11T14:28:33;27.50;1.00
108;DHT22;49;48.530;9.200;2022-07-11T14:31:01;27.40;1.00
108;DHT22;49;48.530;9.200;2022-07-11T14:33:28;27.10;1.00
108;DHT22;49;48.530;9.200;2022-07-11T14:35:55;26.80;1.00
108;DHT22;49;48.530;9.200;2022-07-11T14:38:22;26.80;1.00
108;DHT22;49;48.530;9.200;2022-07-11T14:40:49;27.70;1.00
108;DHT22;49;48.530;9.200;2022-07-11T14:43:17;28.30;1.00
108;DHT22;49;48.530;9.200;2022-07-11T14:45:44;28.30;1.00
108;DHT22;49;48.530;9.200;2022-07-11T14:48:11;28.70;1.00
108;DHT22;49;48.530;9.200;2022-07-11T14:50:41;28.70;1.00
108;DHT22;49;48.530;9.200;2022-07-11T14:53:08;28.00;1.00
108;DHT22;49;48.530;9.200;2022-07-11T14:55:35;27.50;1.00
108;DHT22;49;48.530;9.200;2022-07-11T14:58:07;27.80;1.00
108;DHT22;49;48.530;9.200;2022-07-11T15:00:35;27.60;1.00
108;DHT22;49;48.530;9.200;2022-07-11T15:03:03;27.30;1.00
108;DHT22;49;48.530;9.200;2022-07-11T15:05:47;27.60;1.00
108;DHT22;49;48.530;9.200;2022-07-11T15:08:13;28.00;1.00
108;DHT22;49;48.530;9.200;2022-07-11T15:10:58;27.70;1.00
108;DHT22;49;48.530;9.200;2022-07-11T15:13:42;27.70;1.00
108;DHT22;49;48.530;9.200;2022-07-11T15:16:11;28.00;1.00
108;DHT22;49;48.530;9.200;2022-07-11T15:18:37;28.10;1.00
108;DHT22;49;48.530;9.200;2022-07-11T15:21:05;28.20;1.00
108;DHT22;49;48.530;9.200;2022-07-11T15:23:32;27.90;1.00
108;DHT22;49;48.530;9.200;2022-07-11T15:26:00;27.80;1.00
108;DHT22;49;48.530;9.200;2022-07-11T15:28:29;27.40;1.00
108;DHT22;49;48.530;9.200;2022-07-11T15:30:56;26.90;1.00
108;DHT22;49;48.530;9.200;2022-07-11T15:33:27;27.10;1.00
108;DHT22;49;48.530;9.200;2022-07-11T15:36:01;27.00;1.00
108;DHT22;49;48.530;9.200;2022-07-11T15:38:37;27.10;1.00
108;DHT22;49;48.530;9.200;2022-07-11T15:41:10;26.80;1.00
108;DHT22;49;48.530;9.200;2022-07-11T15:43:37;26.40;1.00
108;DHT22;49;48.530;9.200;2022-07-11T15:46:06;26.70;1.00
108;DHT22;49;48.530;9.200;2022-07-11T15:48:35;26.60;1.00
108;DHT22;49;48.530;9.200;2022-07-11T15:51:03;26.90;1.00
108;DHT22;49;48.530;9.200;2022-07-11T15:53:30;27.40;1.00
108;DHT22;49;48.530;9.200;2022-07-11T15:55:57;27.60;1.00
108;DHT22;49;48.530;9.200;2022-07-11T15:58:25;27.40;1.00
108;DHT22;49;48.530;9.200;2022-07-11T16:00:52;27.30;1.00
108;DHT22;49;48.530;9.200;2022-07-11T16:03:19;27.30;1.00
108;DHT22;49;48.530;9.200;2022-07-11T16:05:48;27.70;1.00
108;DHT22;49;48.530;9.200;2022-07-11T16:08:15;28.10;1.00
108;DHT22;49;48.530;9.200;2022-07-11T16:10:42;27.90;1.00
108;DHT22;49;48.530;9.200;2022-07-11T16:13:10;27.50;1.00
108;DHT22;49;48.530;9.200;2022-07-11T16:15:38;27.50;1.00
108;DHT22;49;48.530;9.200;2022-07-11T16:18:05;27.40;1.00
108;DHT22;49;48.530;9.200;2022-07-11T16:20:32;27.10;1.00
108;DHT22;49;48.530;9.200;2022-07-11T16:23:01;26.70;1.00
108;DHT22;49;48.530;9.200;2022-07-11T16:25:27;26.30;1.00
108;DHT22;49;48.530;9.200;2022-07-11T16:27:54;26.50;1.00
108;DHT22;49;48.530;9.200;2022-07-11T16:30:21;27.40;1.00
108;DHT22;49;48.530;9.200;2022-07-11T16:32:56;26.90;1.00
108;DHT22;49;48.530;9.200;2022-07-11T16:35:23;26.90;1.00
108;DHT22;49;48.530;9.200;2022-07-11T16:37:51;27.00;1.00
108;DHT22;49;48.530;9.200;2022-07-11T16:40:19;27.00;1.00
108;DHT22;49;48.530;9.200;2022-07-11T16:43:06;26.70;1.00
108;DHT22;49;48.530;9.200;2022-07-11T16:45:50;26.50;1.00
108;DHT22;49;48.530;9.200;2022-07-11T16:48:19;25.90;1.00
108;DHT22;49;48.530;9.200;2022-07-11T16:50:46;25.90;1.00
108;DHT22;49;48.530;9.200;2022-07-11T16:53:14;25.70;1.00
108;DHT22;49;48.530;9.200;2022-07-11T16:55:43;25.80;1.00
108;DHT22;49;48.530;9.200;2022-07-11T16:58:11;25.90;1.00
108;DHT22;49;48.530;9.200;2022-07-11T17:00:39;26.00;1.00
108;DHT22;49;48.530;9.200;2022-07-11T17:03:07;26.20;1.00
108;DHT22;49;48.530;9.200;2022-07-11T17:05:39;26.40;1.00
108;DHT22;49;48.530;9.200;2022-07-11T17:08:09;26.50;1.00
108;DHT22;49;48.530;9.200;2022-07-11T17:10:55;26.60;1.00
108;DHT22;49;48.530;9.200;2022-07-11T17:13:23;26.30;1.00
108;DHT22;49;48.530;9.200;2022-07-11T17:15:50;26.30;1.00
108;DHT22;49;48.530;9.200;2022-07-11T17:18:17;26.50;1.00
108;DHT22;49;48.530;9.200;2022-07-11T17:20:44;26.30;1.00
108;DHT22;49;48.530;9.200;2022-07-11T17:23:12;25.90;1.00
108;DHT22;49;48.530;9.200;2022-07-11T17:25:39;25.80;1.00
108;DHT22;49;48.530;9.200;2022-07-11T17:28:10;26.00;1.00
108;DHT22;49;48.530;9.200;2022-07-11T17:30:39;25.90;1.00